createdAt,value
2022-09-13T00:04:53.324Z,100.00
2022-09-13T00:09:54.919Z,100.00
2022-09-13T00:14:56.524Z,100.00
2022-09-13T00:19:58.228Z,100.00
2022-09-13T00:24:59.861Z,100.00
2022-09-13T00:30:01.628Z,100.00
2022-09-13T00:35:05.403Z,100.00
2022-09-13T00:40:07.823Z,100.00
2022-09-13T00:45:12.344Z,100.00
2022-09-13T00:50:35.102Z,100.00
2022-09-13T00:56:00.667Z,100.00
2022-09-13T01:01:05.604Z,100.00
2022-09-13T01:06:13.407Z,100.00
2022-09-13T01:11:30.065Z,100.00
2022-09-13T01:16:31.934Z,100.00
2022-09-13T01:21:36.577Z,100.00
2022-09-13T01:27:15.409Z,100.00
2022-09-13T01:32:43.100Z,100.00
2022-09-13T01:37:57.833Z,100.00
2022-09-13T01:43:17.519Z,100.00
2022-09-13T01:48:35.509Z,100.00
2022-09-13T01:53:56.187Z,100.00
2022-09-13T01:59:16.628Z,100.00
2022-09-13T02:04:23.600Z,100.00
2022-09-13T02:09:28.695Z,100.00
2022-09-13T02:14:41.661Z,100.00
2022-09-13T02:19:52.891Z,100.00
2022-09-13T02:25:02.007Z,100.00
2022-09-13T02:30:14.473Z,100.00
2022-09-13T02:35:21.447Z,100.00
2022-09-13T02:40:28.796Z,100.00
2022-09-13T02:45:37.710Z,100.00
2022-09-13T02:51:07.914Z,100.00
2022-09-13T02:56:34.792Z,100.00
2022-09-13T03:01:39.677Z,100.00
2022-09-13T03:06:42.359Z,100.00
2022-09-13T03:11:54.488Z,100.00
2022-09-13T03:17:07.205Z,100.00
2022-09-13T03:22:32.955Z,100.00
2022-09-13T03:27:52.522Z,100.00
2022-09-13T03:32:59.843Z,100.00
2022-09-13T03:38:12.660Z,100.00
2022-09-13T03:43:21.426Z,100.00
2022-09-13T03:48:23.729Z,100.00
2022-09-13T03:53:28.802Z,100.00
2022-09-13T03:58:30.412Z,100.00
2022-09-13T04:03:32.232Z,100.00
2022-09-13T04:08:33.967Z,100.00
2022-09-13T04:13:38.757Z,100.00
2022-09-13T04:18:40.574Z,100.00
2022-09-13T04:23:42.231Z,100.00
2022-09-13T04:28:43.861Z,100.00
2022-09-13T04:33:45.725Z,100.00
2022-09-13T04:38:47.551Z,100.00
2022-09-13T04:43:50.779Z,100.00
2022-09-13T04:48:52.904Z,100.00
2022-09-13T04:53:55.493Z,100.00
2022-09-13T04:58:57.166Z,100.00
2022-09-13T05:03:58.791Z,100.00
2022-09-13T05:09:00.504Z,100.00
2022-09-13T05:14:02.591Z,100.00
2022-09-13T05:19:04.318Z,100.00
2022-09-13T05:24:06.140Z,100.00
2022-09-13T05:29:07.829Z,100.00
2022-09-13T05:34:12.350Z,100.00
2022-09-13T05:39:48.510Z,100.00
2022-09-13T05:44:39.485Z,100.00
2022-09-13T05:49:56.724Z,100.00
2022-09-13T05:55:03.168Z,100.00
2022-09-13T06:00:05.192Z,100.00
2022-09-13T06:05:14.656Z,100.00
2022-09-13T06:10:16.314Z,100.00
2022-09-13T06:15:17.925Z,90.70
2022-09-13T06:20:19.571Z,81.19
2022-09-13T06:25:21.177Z,79.62
2022-09-13T06:30:22.839Z,81.29
2022-09-13T06:35:24.538Z,81.15
2022-09-13T06:40:26.480Z,80.42
2022-09-13T06:45:28.142Z,79.75
2022-09-13T06:50:29.819Z,79.21
2022-09-13T06:55:31.494Z,78.42
2022-09-13T07:00:33.149Z,78.57
2022-09-13T07:05:34.874Z,76.53
2022-09-13T07:10:36.465Z,76.61
2022-09-13T07:15:38.158Z,76.08
2022-09-13T07:20:39.841Z,76.46
2022-09-13T07:25:42.662Z,75.71
2022-09-13T07:30:44.383Z,74.64
2022-09-13T07:35:45.992Z,70.79
2022-09-13T07:40:57.459Z,71.82
2022-09-13T07:46:04.600Z,74.36
2022-09-13T07:51:12.159Z,75.09
2022-09-13T07:56:19.580Z,78.13
2022-09-13T08:01:26.430Z,78.19
2022-09-13T08:06:31.587Z,81.89
2022-09-13T08:11:36.472Z,83.20
2022-09-13T08:16:39.543Z,81.94
2022-09-13T08:21:42.559Z,86.02
2022-09-13T08:26:44.682Z,84.95
2022-09-13T08:31:46.327Z,81.34
2022-09-13T08:36:48.046Z,77.49
2022-09-13T08:42:01.312Z,81.96
2022-09-13T08:47:18.740Z,81.39
2022-09-13T08:52:33.292Z,79.10
2022-09-13T08:57:45.720Z,80.40
2022-09-13T09:03:11.218Z,80.73
2022-09-13T09:08:24.355Z,79.65
2022-09-13T09:13:43.933Z,81.75
2022-09-13T09:18:49.116Z,78.77
2022-09-13T09:23:54.339Z,79.94
2022-09-13T09:29:00.680Z,78.21
2022-09-13T09:34:22.913Z,78.17
2022-09-13T09:39:33.329Z,77.75
2022-09-13T09:44:36.179Z,75.66
2022-09-13T09:50:10.417Z,75.83
2022-09-13T09:55:35.531Z,74.74
2022-09-13T10:00:50.972Z,71.56
2022-09-13T10:06:11.799Z,69.12
2022-09-13T10:11:14.627Z,69.59
2022-09-13T10:16:30.307Z,65.84
2022-09-13T10:21:32.931Z,63.39
2022-09-13T10:26:36.878Z,64.95
2022-09-13T10:31:48.730Z,65.31
2022-09-13T10:37:31.896Z,66.05
2022-09-13T10:42:34.888Z,64.42
2022-09-13T10:47:48.422Z,59.63
2022-09-13T10:52:52.887Z,53.43
2022-09-13T10:58:03.789Z,54.11
2022-09-13T11:03:14.920Z,51.43
2022-09-13T11:08:49.453Z,53.75
2022-09-13T11:14:08.926Z,53.21
2022-09-13T11:19:42.042Z,54.62
2022-09-13T11:25:17.306Z,51.12
2022-09-13T11:30:29.171Z,52.00
2022-09-13T11:35:43.109Z,53.68
2022-09-13T11:40:58.479Z,57.02
2022-09-13T11:46:12.503Z,54.81
2022-09-13T11:51:43.350Z,55.60
2022-09-13T11:56:53.906Z,53.57
2022-09-13T12:02:01.750Z,56.71
2022-09-13T12:07:11.908Z,53.45
2022-09-13T12:12:14.541Z,55.62
2022-09-13T12:17:29.413Z,57.72
2022-09-13T12:22:35.155Z,57.37
2022-09-13T12:27:42.308Z,57.68
2022-09-13T12:32:46.236Z,58.51
2022-09-13T12:38:19.691Z,56.48
2022-09-13T12:43:56.084Z,56.02
2022-09-13T12:49:06.504Z,55.29
2022-09-13T12:54:29.069Z,57.82
2022-09-13T12:59:39.603Z,58.01
2022-09-13T13:04:41.925Z,57.05
2022-09-13T13:09:46.184Z,57.03
2022-09-13T13:14:53.744Z,57.53
2022-09-13T13:19:55.599Z,56.50
2022-09-13T13:24:57.344Z,56.97
2022-09-13T13:30:32.770Z,57.03
2022-09-13T13:35:34.426Z,54.83
2022-09-13T13:40:36.675Z,53.82
2022-09-13T13:45:38.406Z,53.38
2022-09-13T13:51:19.700Z,55.35
2022-09-13T13:56:33.309Z,58.01
2022-09-13T14:01:39.219Z,58.12
2022-09-13T14:07:03.098Z,58.61
2022-09-13T14:12:13.799Z,58.46
2022-09-13T14:17:49.187Z,58.66
2022-09-13T14:22:50.908Z,59.27
2022-09-13T14:27:56.960Z,58.73
2022-09-13T14:32:58.787Z,59.20
2022-09-13T14:38:21.225Z,59.91
2022-09-13T14:43:27.270Z,60.95
2022-09-13T14:48:53.253Z,60.68
2022-09-13T14:54:01.399Z,61.84
2022-09-13T14:59:07.170Z,62.45
2022-09-13T15:04:09.265Z,62.30
2022-09-13T15:09:11.152Z,63.50
2022-09-13T15:14:12.704Z,63.55
2022-09-13T15:19:28.330Z,63.86
2022-09-13T15:24:33.516Z,64.33
2022-09-13T15:29:37.607Z,64.98
2022-09-13T15:34:46.300Z,64.61
2022-09-13T15:40:19.586Z,65.01
2022-09-13T15:45:22.685Z,65.39
2022-09-13T15:50:31.064Z,65.88
2022-09-13T15:55:32.774Z,64.66
2022-09-13T16:00:34.382Z,65.70
2022-09-13T16:05:36.716Z,65.79
2022-09-13T16:10:38.631Z,66.34
2022-09-13T16:15:40.349Z,66.06
2022-09-13T16:20:42.507Z,66.19
2022-09-13T16:25:44.542Z,65.81
2022-09-13T16:30:47.184Z,66.75
2022-09-13T16:35:48.797Z,66.33
2022-09-13T16:40:50.410Z,65.91
2022-09-13T16:45:52.088Z,65.77
2022-09-13T16:50:53.667Z,66.25
2022-09-13T16:56:08.293Z,67.13
2022-09-13T17:01:12.267Z,67.01
2022-09-13T17:06:16.432Z,67.74
2022-09-13T17:11:20.921Z,67.76
2022-09-13T17:16:25.214Z,68.03
2022-09-13T17:21:27.784Z,67.46
2022-09-13T17:26:29.699Z,67.44
2022-09-13T17:31:31.418Z,69.31
2022-09-13T17:36:33.140Z,69.89
2022-09-13T17:41:35.198Z,70.30
2022-09-13T17:46:36.855Z,70.76
2022-09-13T17:51:38.483Z,71.87
2022-09-13T17:56:42.921Z,72.13
2022-09-13T18:01:47.239Z,72.99
2022-09-13T18:06:51.737Z,74.38
2022-09-13T18:11:53.416Z,75.98
2022-09-13T18:16:57.362Z,76.12
2022-09-13T18:22:01.454Z,76.73
2022-09-13T18:27:04.035Z,77.16
2022-09-13T18:32:05.952Z,77.74
2022-09-13T18:37:07.699Z,77.47
2022-09-13T18:42:09.304Z,77.18
2022-09-13T18:47:13.038Z,77.49
2022-09-13T18:52:15.034Z,77.83
2022-09-13T18:57:17.078Z,77.31
2022-09-13T19:02:19.996Z,75.68
2022-09-13T19:07:22.425Z,75.71
2022-09-13T19:12:24.045Z,74.39
2022-09-13T19:17:25.642Z,74.60
2022-09-13T19:22:27.335Z,74.38
2022-09-13T19:27:28.989Z,74.75
2022-09-13T19:32:30.590Z,74.69
2022-09-13T19:37:32.695Z,75.37
2022-09-13T19:42:34.288Z,78.03
2022-09-13T19:52:57.916Z,77.91
2022-09-13T19:57:59.601Z,77.62
2022-09-13T20:03:01.358Z,77.43
2022-09-13T20:08:03.543Z,76.96
2022-09-13T20:13:05.237Z,77.75
2022-09-13T20:18:13.191Z,78.50
2022-09-13T20:23:17.249Z,82.33
2022-09-13T20:28:18.919Z,83.29
2022-09-13T20:33:20.658Z,85.51
2022-09-13T20:38:22.350Z,87.28
2022-09-13T20:43:23.971Z,88.06
2022-09-13T20:48:26.004Z,89.03
2022-09-13T20:53:28.430Z,90.45
2022-09-13T20:58:30.703Z,90.46
2022-09-13T21:03:37.495Z,91.23
2022-09-13T21:08:44.032Z,91.64
2022-09-13T21:13:52.370Z,92.24
2022-09-13T21:18:54.380Z,94.47
2022-09-13T21:23:57.576Z,95.55
2022-09-13T21:29:00.136Z,95.82
2022-09-13T21:34:04.953Z,97.59
2022-09-13T21:39:07.347Z,98.19
2022-09-13T21:44:10.170Z,98.65
2022-09-13T21:49:12.892Z,100.00
2022-09-13T21:54:17.252Z,100.00
2022-09-13T21:59:20.622Z,100.00
2022-09-13T22:04:27.265Z,100.00
2022-09-13T22:09:29.254Z,100.00
2022-09-13T22:14:30.910Z,100.00
2022-09-13T22:19:32.522Z,100.00
2022-09-13T22:24:35.817Z,100.00
2022-09-13T22:29:37.501Z,100.00
2022-09-13T22:34:40.833Z,100.00
2022-09-13T22:39:42.513Z,100.00
2022-09-13T22:44:44.148Z,100.00
2022-09-13T22:49:45.779Z,100.00
2022-09-13T22:54:50.830Z,100.00
2022-09-13T22:59:52.758Z,100.00
2022-09-13T23:04:54.603Z,100.00
2022-09-13T23:09:56.204Z,100.00
2022-09-13T23:14:57.796Z,100.00
2022-09-13T23:19:59.394Z,100.00
2022-09-13T23:25:01.088Z,100.00
2022-09-13T23:30:02.736Z,100.00
2022-09-13T23:35:04.677Z,100.00
2022-09-13T23:40:06.949Z,100.00
2022-09-13T23:45:08.986Z,100.00
2022-09-13T23:50:10.760Z,100.00
2022-09-13T23:55:14.351Z,100.00
